Time;durP1;ratioP1;P1;durP2;ratioP2;P2;SDS_P1;SDS_P2;PMS_P1;PMS_P2;Temp;Humidity;BMP_temperature;BMP_pressure;BME280_temperature;BME280_humidity;BME280_pressure;Samples;Min_cycle;Max_cycle;Signal;HPM_P1;HPM_P2
2022/06/04 00:00:50;;;;;;;17.40;9.35;;;9.20;99.90;;;;;;5008776;28;20053;-46
2022/06/04 00:03:17;;;;;;;17.17;8.80;;;9.20;99.90;;;;;;5009116;28;20161;-46
2022/06/04 00:05:46;;;;;;;17.70;10.23;;;9.10;99.90;;;;;;5008803;28;20044;-45
2022/06/04 00:08:13;;;;;;;14.88;9.57;;;9.00;99.90;;;;;;5008775;28;20042;-45
2022/06/04 00:16:15;;;;;;;26.77;11.85;;;9.60;99.90;;;;;;5008982;28;20393;-46
2022/06/04 00:18:41;;;;;;;22.42;10.93;;;9.00;99.90;;;;;;5008870;28;20441;-46
2022/06/04 00:21:08;;;;;;;19.60;10.23;;;9.10;99.90;;;;;;5023486;28;20046;-45
2022/06/04 00:23:34;;;;;;;18.98;10.20;;;9.00;99.90;;;;;;5008863;28;20048;-45
2022/06/04 00:26:01;;;;;;;19.23;11.60;;;9.00;99.90;;;;;;5008492;28;20049;-46
2022/06/04 00:28:28;;;;;;;20.15;11.15;;;9.10;99.90;;;;;;5008727;28;20243;-47
2022/06/04 00:30:55;;;;;;;17.65;10.93;;;8.90;99.90;;;;;;5008683;28;20042;-45
2022/06/04 00:33:21;;;;;;;17.60;11.60;;;9.70;99.90;;;;;;5008568;28;20497;-46
2022/06/04 00:35:50;;;;;;;23.05;11.27;;;8.90;99.90;;;;;;5008664;28;20057;-45
2022/06/04 00:38:18;;;;;;;25.75;11.82;;;9.10;99.90;;;;;;5008673;28;20034;-46
2022/06/04 00:41:11;;;;;;;21.02;11.93;;;8.80;99.90;;;;;;5011073;28;20057;-46
2022/06/04 00:44:01;;;;;;;19.50;12.65;;;8.70;99.90;;;;;;5012606;28;20042;-46
2022/06/04 00:46:39;;;;;;;17.88;13.30;;;8.70;99.90;;;;;;5012967;28;20033;-46
2022/06/04 00:49:09;;;;;;;20.75;13.07;;;8.40;99.90;;;;;;5012249;28;20041;-47
2022/06/04 00:51:36;;;;;;;24.75;13.32;;;8.70;99.90;;;;;;5012648;28;20358;-47
2022/06/04 00:54:03;;;;;;;25.00;13.43;;;8.70;99.90;;;;;;5012205;28;20490;-45
2022/06/04 00:56:49;;;;;;;18.00;12.57;;;8.70;99.90;;;;;;5012247;28;20555;-45
2022/06/04 00:59:39;;;;;;;22.15;13.38;;;8.70;99.90;;;;;;5012401;28;20377;-48
2022/06/04 01:02:17;;;;;;;28.35;14.52;;;8.70;99.90;;;;;;5011859;28;20507;-45
2022/06/04 01:05:05;;;;;;;23.02;13.43;;;8.30;99.90;;;;;;5012216;28;20137;-45
2022/06/04 01:07:34;;;;;;;22.75;13.73;;;8.70;99.90;;;;;;5011165;28;20409;-47
2022/06/04 01:10:23;;;;;;;27.05;13.55;;;8.60;99.90;;;;;;5011402;28;20436;-51
2022/06/04 01:12:54;;;;;;;21.98;13.40;;;8.70;99.90;;;;;;5010027;28;20178;-45
2022/06/04 01:15:47;;;;;;;24.45;13.18;;;8.60;99.90;;;;;;5011719;28;20046;-47
2022/06/04 01:18:32;;;;;;;26.63;13.05;;;8.70;99.90;;;;;;5011409;28;20065;-46
2022/06/04 01:21:24;;;;;;;23.73;13.90;;;8.60;99.90;;;;;;5011067;28;20655;-45
2022/06/04 01:24:08;;;;;;;;;;;8.60;99.90;;;;;;5012048;28;20038;-45
2022/06/04 01:27:01;;;;;;;25.25;13.93;;;8.60;99.90;;;;;;5011631;28;19921;-46
2022/06/04 01:29:34;;;;;;;25.92;13.93;;;8.60;99.90;;;;;;5011097;28;20504;-50
2022/06/04 01:32:19;;;;;;;23.10;13.95;;;8.60;99.90;;;;;;5010973;28;20497;-46
2022/06/04 01:34:55;;;;;;;27.20;13.25;;;8.60;99.90;;;;;;5011388;28;20086;-50
2022/06/04 01:37:51;;;;;;;27.52;14.70;;;8.60;99.90;;;;;;5011004;28;20046;-45
2022/06/04 01:43:09;;;;;;;27.58;14.38;;;8.50;99.90;;;;;;5011098;28;20148;-46
2022/06/04 01:45:37;;;;;;;24.15;13.82;;;8.90;99.90;;;;;;5009911;28;20052;-45
2022/06/04 01:48:05;;;;;;;24.73;14.10;;;8.50;99.90;;;;;;5010959;28;20151;-46
2022/06/04 01:50:43;;;;;;;26.95;14.07;;;8.50;99.90;;;;;;5010140;28;20053;-45
2022/06/04 01:53:12;;;;;;;26.75;14.82;;;8.50;99.90;;;;;;5011113;28;20057;-45
2022/06/04 01:55:55;;;;;;;25.90;14.15;;;8.50;99.90;;;;;;5011057;28;20048;-46
2022/06/04 01:58:25;;;;;;;24.38;14.68;;;8.40;99.90;;;;;;5011224;28;20176;-47
2022/06/04 02:00:59;;;;;;;30.67;15.70;;;8.40;99.90;;;;;;5011140;28;20065;-45
2022/06/04 02:03:37;;;;;;;29.02;15.60;;;8.40;99.90;;;;;;5011471;28;20048;-47
2022/06/04 02:06:19;;;;;;;24.27;14.45;;;8.30;99.90;;;;;;5010867;28;20046;-46
2022/06/04 02:08:56;;;;;;;23.15;14.45;;;8.30;99.90;;;;;;5011080;28;20128;-46
2022/06/04 02:11:24;;;;;;;30.70;15.45;;;8.20;99.90;;;;;;5010268;28;20397;-46
2022/06/04 02:13:53;;;;;;;22.08;14.73;;;8.20;99.90;;;;;;5010761;28;20430;-46
2022/06/04 02:16:27;;;;;;;29.10;15.73;;;8.20;99.90;;;;;;5010257;28;20583;-47
2022/06/04 02:18:56;;;;;;;32.63;16.65;;;8.20;99.90;;;;;;5010508;28;20037;-45
2022/06/04 02:21:23;;;;;;;27.95;15.57;;;8.10;99.90;;;;;;5010528;28;20057;-47
2022/06/04 02:23:49;;;;;;;28.52;15.60;;;9.00;99.90;;;;;;5010650;28;20108;-45
2022/06/04 02:26:17;;;;;;;33.13;17.15;;;8.10;99.90;;;;;;5010249;28;20042;-45
2022/06/04 02:28:43;;;;;;;39.03;17.52;;;8.20;99.90;;;;;;5010741;28;20120;-46
2022/06/04 02:31:44;;;;;;;32.75;15.57;;;8.10;99.90;;;;;;5010205;28;20052;-45
2022/06/04 02:34:24;;;;;;;30.63;16.60;;;8.10;99.90;;;;;;5010146;28;20046;-46
2022/06/04 02:37:09;;;;;;;30.40;17.80;;;8.10;99.90;;;;;;5009950;28;20608;-45
2022/06/04 02:39:41;;;;;;;37.78;17.70;;;8.10;99.90;;;;;;5010233;28;20042;-47
2022/06/04 02:42:21;;;;;;;33.33;18.20;;;7.80;99.90;;;;;;5008355;28;20050;-46
2022/06/04 02:45:16;;;;;;;29.00;16.95;;;8.00;99.90;;;;;;5009804;28;20584;-45
2022/06/04 02:47:50;;;;;;;31.77;17.15;;;8.00;99.90;;;;;;5007240;28;20058;-47
2022/06/04 02:50:24;;;;;;;27.67;16.75;;;8.00;99.90;;;;;;5009423;28;20176;-47
2022/06/04 02:52:52;;;;;;;31.88;15.50;;;8.00;99.90;;;;;;5009945;28;20524;-47
2022/06/04 02:55:24;;;;;;;29.30;16.45;;;7.80;99.90;;;;;;5009921;28;20042;-46
2022/06/04 02:57:53;;;;;;;31.25;15.45;;;8.00;99.90;;;;;;5009830;28;20504;-46
2022/06/04 03:00:22;;;;;;;31.45;16.73;;;7.90;99.90;;;;;;5009448;28;20046;-45
2022/06/04 03:02:48;;;;;;;31.05;15.73;;;8.80;99.90;;;;;;5009708;28;20042;-46
2022/06/04 03:05:17;;;;;;;29.13;15.35;;;7.90;99.90;;;;;;5009306;28;20038;-44
2022/06/04 03:07:46;;;;;;;29.17;15.00;;;7.10;99.90;;;;;;5009643;28;20041;-45
2022/06/04 03:10:23;;;;;;;33.55;15.35;;;7.90;99.90;;;;;;5009113;28;20041;-47
2022/06/04 03:12:49;;;;;;;28.05;14.57;;;7.80;99.90;;;;;;5009163;28;20088;-45
2022/06/04 03:15:15;;;;;;;28.40;15.35;;;7.90;99.90;;;;;;5009234;28;20129;-47
2022/06/04 03:17:44;;;;;;;26.42;15.32;;;7.90;99.90;;;;;;5009541;28;20045;-46
2022/06/04 03:20:12;;;;;;;34.35;16.08;;;7.90;99.90;;;;;;5009345;28;20151;-47
2022/06/04 03:22:38;;;;;;;31.67;16.02;;;7.90;99.90;;;;;;5009565;28;20048;-45
2022/06/04 03:25:04;;;;;;;32.15;15.13;;;7.90;99.90;;;;;;5009602;28;20030;-46
2022/06/04 03:27:30;;;;;;;31.13;15.82;;;7.90;99.90;;;;;;5009769;28;20041;-45
2022/06/04 03:29:56;;;;;;;28.40;14.23;;;7.90;99.90;;;;;;5009425;28;20069;-47
2022/06/04 03:32:22;;;;;;;32.40;14.45;;;8.00;99.90;;;;;;5008986;28;20052;-45
2022/06/04 03:34:48;;;;;;;34.75;14.98;;;7.80;99.90;;;;;;5009182;28;20049;-46
2022/06/04 03:37:13;;;;;;;24.00;13.75;;;8.00;99.90;;;;;;5008981;28;20034;-47
2022/06/04 03:39:39;;;;;;;30.60;14.13;;;8.10;99.90;;;;;;5009001;28;20049;-45
2022/06/04 03:42:06;;;;;;;28.67;14.13;;;8.10;99.90;;;;;;5008992;28;20436;-47
2022/06/04 03:44:32;;;;;;;27.65;13.43;;;8.20;99.90;;;;;;5007651;28;20138;-46
2022/06/04 03:46:58;;;;;;;25.15;13.95;;;9.10;99.90;;;;;;5009020;28;20037;-47
2022/06/04 03:49:24;;;;;;;20.77;13.25;;;8.10;99.90;;;;;;5008835;28;20045;-46
2022/06/04 03:51:51;;;;;;;20.63;12.25;;;8.30;99.90;;;;;;5008859;28;20436;-47
2022/06/04 03:54:16;;;;;;;28.10;13.23;;;8.50;99.90;;;;;;5008685;28;20088;-48
2022/06/04 03:56:42;;;;;;;28.35;14.13;;;8.40;99.90;;;;;;5008518;28;20081;-46
2022/06/04 03:59:08;;;;;;;27.10;13.25;;;8.50;99.90;;;;;;5008834;28;20056;-46
2022/06/04 04:01:34;;;;;;;25.65;12.70;;;8.40;99.90;;;;;;5008334;28;20569;-46
2022/06/04 04:04:01;;;;;;;21.35;11.98;;;9.00;99.90;;;;;;5008440;28;20555;-46
2022/06/04 04:06:30;;;;;;;26.20;12.93;;;8.50;99.90;;;;;;5008366;28;20478;-49
2022/06/04 04:08:56;;;;;;;25.00;12.23;;;8.70;99.90;;;;;;5009080;28;20045;-47
2022/06/04 04:11:25;;;;;;;21.50;12.55;;;8.80;99.90;;;;;;5008384;28;20048;-46
2022/06/04 04:13:51;;;;;;;19.02;12.38;;;8.90;99.90;;;;;;5008187;28;20046;-49
2022/06/04 04:16:18;;;;;;;22.92;12.65;;;9.00;99.90;;;;;;5008516;28;20046;-46
2022/06/04 04:18:45;;;;;;;21.95;12.35;;;7.90;99.90;;;;;;5008795;28;20050;-49
2022/06/04 04:21:16;;;;;;;26.17;12.45;;;9.30;99.90;;;;;;5008357;28;20053;-46
2022/06/04 04:23:42;;;;;;;20.10;11.02;;;10.30;99.90;;;;;;5008948;28;20060;-47
2022/06/04 04:26:11;;;;;;;17.10;11.05;;;9.80;99.90;;;;;;5008261;28;20041;-45
2022/06/04 04:28:37;;;;;;;15.52;9.82;;;10.80;99.90;;;;;;5008522;28;20074;-46
2022/06/04 04:31:10;;;;;;;11.68;9.02;;;10.00;99.90;;;;;;5008494;28;20470;-45
2022/06/04 04:33:35;;;;;;;14.50;8.02;;;10.20;99.90;;;;;;5008473;28;20042;-45
2022/06/04 04:36:01;;;;;;;13.20;8.27;;;10.00;99.90;;;;;;5008584;28;20440;-46
2022/06/04 04:38:27;;;;;;;13.63;7.50;;;10.40;99.90;;;;;;5008005;28;20476;-45
2022/06/04 04:40:52;;;;;;;19.05;7.05;;;10.90;99.90;;;;;;5008720;28;20049;-46
2022/06/04 04:43:18;;;;;;;9.63;7.57;;;11.10;99.90;;;;;;5008775;28;20077;-47
2022/06/04 04:45:44;;;;;;;10.93;6.82;;;10.80;99.90;;;;;;5008829;28;20053;-45
2022/06/04 04:48:11;;;;;;;10.50;5.80;;;10.70;99.90;;;;;;5008486;28;20191;-46
2022/06/04 04:50:40;;;;;;;10.88;6.55;;;10.90;99.90;;;;;;5008460;28;20038;-46
2022/06/04 04:53:10;;;;;;;10.25;6.38;;;11.10;99.90;;;;;;5008523;28;20092;-50
2022/06/04 04:55:36;;;;;;;8.18;6.07;;;11.10;99.90;;;;;;5008289;28;20041;-46
2022/06/04 04:58:02;;;;;;;13.00;6.55;;;11.10;99.90;;;;;;5008350;28;20049;-45
2022/06/04 05:00:29;;;;;;;10.15;6.03;;;11.60;99.90;;;;;;5008165;28;20120;-47
2022/06/04 05:02:56;;;;;;;10.70;6.80;;;11.50;99.90;;;;;;5008550;28;20808;-48
2022/06/04 05:05:22;;;;;;;10.80;6.43;;;11.70;99.90;;;;;;5007978;28;20046;-45
2022/06/04 05:07:48;;;;;;;7.30;4.88;;;11.90;99.90;;;;;;5008131;28;20130;-47
2022/06/04 05:10:14;;;;;;;7.50;4.50;;;12.00;99.90;;;;;;5008381;28;20077;-45
2022/06/04 05:12:40;;;;;;;10.45;4.72;;;12.10;99.90;;;;;;5007527;28;20129;-47
2022/06/04 05:15:06;;;;;;;6.18;3.17;;;12.10;99.90;;;;;;5008394;28;20092;-46
2022/06/04 05:17:32;;;;;;;7.93;3.95;;;12.30;99.90;;;;;;5008097;28;20092;-46
2022/06/04 05:19:57;;;;;;;8.45;3.47;;;12.70;99.90;;;;;;5008289;28;20420;-46
2022/06/04 05:22:23;;;;;;;7.45;3.42;;;12.90;99.90;;;;;;5008095;28;20497;-45
2022/06/04 05:24:49;;;;;;;6.28;3.85;;;13.60;99.90;;;;;;5008411;28;20394;-49
2022/06/04 05:27:15;;;;;;;5.25;2.78;;;15.40;99.90;;;;;;5011043;28;20084;-47
2022/06/04 05:29:40;;;;;;;5.40;3.00;;;15.90;99.90;;;;;;5011484;28;20378;-45
2022/06/04 05:32:09;;;;;;;6.75;3.05;;;16.20;99.90;;;;;;5011983;28;20056;-47
2022/06/04 05:34:35;;;;;;;4.90;2.60;;;16.00;99.90;;;;;;5011587;28;20374;-47
2022/06/04 05:37:01;;;;;;;4.55;2.13;;;15.80;99.90;;;;;;5011489;28;20057;-48
2022/06/04 05:39:31;;;;;;;4.78;2.53;;;15.80;99.90;;;;;;5011331;28;20050;-46
2022/06/04 05:41:58;;;;;;;4.57;2.22;;;15.80;99.90;;;;;;5011497;28;20084;-46
2022/06/04 05:44:23;;;;;;;4.30;2.30;;;16.10;99.90;;;;;;5011788;28;20394;-47
2022/06/04 05:46:49;;;;;;;5.13;2.30;;;16.30;99.90;;;;;;5011233;28;20046;-49
2022/06/04 05:49:15;;;;;;;4.35;2.25;;;16.00;99.90;;;;;;5009699;28;20076;-45
2022/06/04 05:51:43;;;;;;;4.85;2.50;;;16.30;99.90;;;;;;5011009;28;20192;-46
2022/06/04 05:54:10;;;;;;;4.35;2.13;;;16.30;99.90;;;;;;5010991;28;20588;-47
2022/06/04 05:56:38;;;;;;;4.47;2.10;;;16.50;99.90;;;;;;5011173;28;20037;-47
2022/06/04 05:59:07;;;;;;;5.97;1.80;;;17.70;99.50;;;;;;5011379;28;20068;-45
2022/06/04 06:01:33;;;;;;;6.05;2.10;;;18.30;96.00;;;;;;5010465;28;20485;-46
2022/06/04 06:04:00;;;;;;;5.53;2.20;;;17.80;95.50;;;;;;5010701;28;20696;-46
2022/06/04 06:06:30;;;;;;;4.28;2.42;;;18.10;95.80;;;;;;5010451;28;20073;-46
2022/06/04 06:08:57;;;;;;;3.92;2.00;;;17.90;94.90;;;;;;5010404;28;20362;-46
2022/06/04 06:11:23;;;;;;;8.05;2.20;;;17.80;95.60;;;;;;5010464;28;20218;-46
2022/06/04 06:13:50;;;;;;;5.07;2.35;;;17.80;95.10;;;;;;5010336;28;20483;-46
2022/06/04 06:16:19;;;;;;;4.10;2.58;;;17.80;95.30;;;;;;5010604;28;20034;-45
2022/06/04 06:18:44;;;;;;;4.70;2.25;;;18.20;96.20;;;;;;5010302;28;20084;-46
2022/06/04 06:21:23;;;;;;;4.10;2.33;;;18.20;95.00;;;;;;5010103;28;20081;-46
2022/06/04 06:23:49;;;;;;;4.22;2.22;;;18.40;93.00;;;;;;5010395;28;20076;-45
2022/06/04 06:26:19;;;;;;;4.63;2.03;;;18.70;93.60;;;;;;5010624;28;20048;-44
2022/06/04 06:28:45;;;;;;;4.32;1.83;;;19.20;92.60;;;;;;5010275;28;20448;-46
2022/06/04 06:31:14;;;;;;;3.90;1.90;;;19.90;91.10;;;;;;5010454;28;20445;-46
2022/06/04 06:33:39;;;;;;;4.45;1.67;;;21.20;87.30;;;;;;5009934;28;20076;-46
2022/06/04 06:36:08;;;;;;;3.13;1.95;;;22.40;82.80;;;;;;5010026;28;20452;-47
2022/06/04 06:38:34;;;;;;;5.53;1.67;;;23.50;76.80;;;;;;5009638;28;20037;-46
2022/06/04 06:41:01;;;;;;;3.67;1.77;;;24.40;73.90;;;;;;5009777;28;20042;-50
2022/06/04 06:43:39;;;;;;;5.15;2.05;;;24.90;70.80;;;;;;5009883;28;20034;-45
2022/06/04 06:46:08;;;;;;;6.25;2.30;;;25.50;69.00;;;;;;5010046;28;20396;-48
2022/06/04 06:48:35;;;;;;;4.22;1.70;;;25.90;66.80;;;;;;5009248;28;20045;-46
2022/06/04 06:51:06;;;;;;;3.40;1.50;;;26.60;63.80;;;;;;5009945;28;20052;-49
2022/06/04 06:53:32;;;;;;;4.30;1.55;;;27.00;61.50;;;;;;5009576;28;20049;-49
2022/06/04 06:55:58;;;;;;;2.83;1.60;;;27.60;61.70;;;;;;5009497;28;20049;-47
2022/06/04 06:58:24;;;;;;;2.50;1.33;;;28.10;59.90;;;;;;5009428;28;20053;-46
2022/06/04 07:00:51;;;;;;;6.78;1.83;;;28.70;58.70;;;;;;5009258;28;20535;-49
2022/06/04 07:03:18;;;;;;;3.97;1.42;;;29.20;57.50;;;;;;5008245;28;20480;-48
2022/06/04 07:05:43;;;;;;;4.57;1.35;;;30.00;56.20;;;;;;5007970;28;20058;-47
2022/06/04 07:08:09;;;;;;;4.97;2.20;;;30.60;55.80;;;;;;5009635;28;20037;-46
2022/06/04 07:10:35;;;;;;;4.15;1.50;;;31.10;54.00;;;;;;5009972;28;20330;-50
2022/06/04 07:13:00;;;;;;;2.80;1.50;;;31.60;52.80;;;;;;5009279;28;20085;-50
2022/06/04 07:15:26;;;;;;;6.75;1.73;;;32.00;52.80;;;;;;5009654;28;20061;-52
2022/06/04 07:17:51;;;;;;;3.63;1.58;;;32.10;50.80;;;;;;5009396;28;20056;-50
2022/06/04 07:20:20;;;;;;;3.15;1.40;;;31.90;49.90;;;;;;5009457;28;20443;-48
2022/06/04 07:22:46;;;;;;;6.35;1.90;;;32.00;50.40;;;;;;5009511;28;20045;-49
2022/06/04 07:25:11;;;;;;;4.05;1.75;;;32.00;49.20;;;;;;5009284;28;20057;-48
2022/06/04 07:27:37;;;;;;;4.38;1.83;;;32.50;48.80;;;;;;5009614;28;20069;-49
2022/06/04 07:30:03;;;;;;;3.88;1.80;;;32.90;48.70;;;;;;5009499;28;20046;-50
2022/06/04 07:32:29;;;;;;;3.35;1.60;;;33.10;48.00;;;;;;4991526;28;20053;-47
2022/06/04 07:34:54;;;;;;;3.70;1.48;;;32.90;47.20;;;;;;5009213;28;20104;-51
2022/06/04 07:37:20;;;;;;;5.05;1.95;;;32.90;47.70;;;;;;5009489;28;20440;-47
2022/06/04 07:39:46;;;;;;;4.63;1.30;;;33.40;48.00;;;;;;5009031;28;20119;-49
2022/06/04 07:42:11;;;;;;;3.38;1.70;;;34.10;47.10;;;;;;5008924;28;20125;-51
2022/06/04 07:44:37;;;;;;;3.40;1.75;;;34.70;45.90;;;;;;5009242;28;20125;-47
2022/06/04 07:47:03;;;;;;;3.58;1.48;;;35.10;45.00;;;;;;5009115;28;20113;-48
2022/06/04 07:49:28;;;;;;;6.40;1.90;;;35.40;44.70;;;;;;5007076;28;20053;-51
2022/06/04 07:51:54;;;;;;;3.63;1.77;;;35.60;44.10;;;;;;5008929;28;20104;-49
2022/06/04 07:54:20;;;;;;;3.25;1.73;;;35.60;43.70;;;;;;5009115;28;20084;-51
2022/06/04 07:56:46;;;;;;;3.22;1.90;;;35.30;43.60;;;;;;5008871;28;20439;-52
2022/06/04 07:59:16;;;;;;;3.70;1.73;;;34.50;43.00;;;;;;5008048;28;20046;-50
2022/06/04 08:01:42;;;;;;;3.05;1.50;;;33.60;43.50;;;;;;5008981;28;20058;-50
2022/06/04 08:04:09;;;;;;;5.53;1.90;;;32.80;44.50;;;;;;5009091;28;20069;-52
2022/06/04 08:06:35;;;;;;;2.33;1.85;;;32.10;45.20;;;;;;5009220;28;20084;-48
2022/06/04 08:09:00;;;;;;;3.58;1.83;;;31.20;45.00;;;;;;5008787;28;20065;-50
2022/06/04 08:11:35;;;;;;;2.65;1.70;;;30.60;46.00;;;;;;5008889;28;20041;-50
2022/06/04 08:14:13;;;;;;;2.65;1.40;;;30.80;46.50;;;;;;5008378;28;20065;-49
2022/06/04 08:16:42;;;;;;;3.35;1.73;;;31.50;46.50;;;;;;5009065;28;20054;-51
2022/06/04 08:19:08;;;;;;;3.58;2.08;;;32.40;45.90;;;;;;5008949;28;20056;-47
2022/06/04 08:21:35;;;;;;;2.58;1.58;;;32.70;44.40;;;;;;5008471;28;20397;-49
2022/06/04 08:24:01;;;;;;;3.05;1.50;;;32.70;44.60;;;;;;5008296;28;20048;-50
2022/06/04 08:26:27;;;;;;;3.42;2.15;;;32.80;44.90;;;;;;5008710;28;20038;-51
2022/06/04 08:28:53;;;;;;;4.10;1.85;;;32.40;44.20;;;;;;5008609;28;20050;-48
2022/06/04 08:31:19;;;;;;;2.92;1.65;;;32.20;44.80;;;;;;5008542;28;20572;-49
2022/06/04 08:33:46;;;;;;;3.42;2.13;;;32.70;45.60;;;;;;5007324;28;20393;-49
2022/06/04 08:36:13;;;;;;;3.67;1.88;;;33.20;45.30;;;;;;5008923;28;20054;-52
2022/06/04 08:38:39;;;;;;;3.90;1.98;;;33.30;44.10;;;;;;5008519;28;20513;-50
2022/06/04 08:41:17;;;;;;;3.95;1.83;;;33.90;43.60;;;;;;5008658;28;20053;-52
2022/06/04 08:43:53;;;;;;;4.53;1.80;;;34.60;42.10;;;;;;5008357;28;20045;-53
2022/06/04 08:46:27;;;;;;;3.17;1.80;;;34.30;41.80;;;;;;5009094;28;20416;-52
2022/06/04 08:48:55;;;;;;;3.13;1.65;;;34.90;43.00;;;;;;5008612;28;20049;-52
2022/06/04 08:51:26;;;;;;;5.05;2.05;;;35.40;42.60;;;;;;5008678;28;20053;-51
2022/06/04 08:53:53;;;;;;;;;;;36.00;42.80;;;;;;5008850;28;20038;-53
2022/06/04 08:59:25;;;;;;;2.40;1.45;;;37.20;40.90;;;;;;5009718;28;20057;-52
2022/06/04 09:01:58;;;;;;;4.20;1.73;;;36.50;40.00;;;;;;5013867;28;20449;-51
2022/06/04 09:04:54;;;;;;;3.17;1.67;;;36.00;40.20;;;;;;5013810;28;20482;-52
2022/06/04 09:07:31;;;;;;;4.10;1.52;;;36.20;41.60;;;;;;5014210;28;20116;-53
2022/06/04 09:10:01;;;;;;;3.17;1.35;;;36.70;39.80;;;;;;5013823;28;20042;-51
2022/06/04 09:12:42;;;;;;;2.63;1.67;;;37.10;40.80;;;;;;5013779;28;20413;-52
2022/06/04 09:15:18;;;;;;;2.72;1.20;;;36.50;39.30;;;;;;5009070;28;20572;-53
2022/06/04 09:17:50;;;;;;;4.07;1.73;;;36.80;39.40;;;;;;5014020;28;20050;-53
2022/06/04 09:20:31;;;;;;;2.95;1.60;;;36.90;40.20;;;;;;5013591;28;20073;-53
2022/06/04 09:23:04;;;;;;;3.05;0.90;;;37.10;39.30;;;;;;5013655;28;20092;-53
2022/06/04 09:25:43;;;;;;;2.85;1.00;;;36.90;40.40;;;;;;5013154;28;20042;-52
2022/06/04 09:28:30;;;;;;;3.40;1.65;;;37.00;40.30;;;;;;5012508;28;20468;-54
2022/06/04 09:31:11;;;;;;;4.22;1.00;;;37.80;40.60;;;;;;5009759;28;20049;-53
2022/06/04 09:33:37;;;;;;;3.78;1.70;;;38.90;39.50;;;;;;5010170;28;20085;-50
2022/06/04 09:36:03;;;;;;;5.38;2.28;;;38.60;37.80;;;;;;5010265;28;20081;-53
2022/06/04 09:38:31;;;;;;;3.13;1.77;;;38.20;37.50;;;;;;5011958;28;20061;-52
2022/06/04 09:41:00;;;;;;;3.05;1.20;;;37.80;37.80;;;;;;5011403;28;20068;-53
2022/06/04 09:43:26;;;;;;;2.42;1.25;;;37.90;38.10;;;;;;5012425;28;20053;-51
2022/06/04 09:46:03;;;;;;;2.20;0.90;;;37.20;38.00;;;;;;5012014;28;20104;-52
2022/06/04 09:48:33;;;;;;;2.53;1.38;;;37.20;37.90;;;;;;5011653;28;20046;-53
2022/06/04 09:51:03;;;;;;;2.20;1.30;;;36.80;38.10;;;;;;5011237;28;20501;-53
2022/06/04 09:53:41;;;;;;;3.10;1.57;;;36.10;38.90;;;;;;5011586;28;20054;-54
2022/06/04 09:56:28;;;;;;;3.25;1.35;;;35.50;37.70;;;;;;5011679;28;20037;-53
2022/06/04 09:58:53;;;;;;;3.38;1.20;;;35.10;38.80;;;;;;5013683;28;20050;-53
2022/06/04 10:01:21;;;;;;;2.97;1.02;;;35.00;39.40;;;;;;5012639;28;20104;-53
2022/06/04 10:04:14;;;;;;;2.67;1.15;;;35.20;39.40;;;;;;5013460;28;20117;-53
2022/06/04 10:06:41;;;;;;;3.60;1.45;;;35.50;39.00;;;;;;5012326;28;20413;-53
2022/06/04 10:12:07;;;;;;;3.65;1.00;;;35.60;40.40;;;;;;5012131;28;20065;-53
2022/06/04 10:14:37;;;;;;;3.55;0.75;;;35.70;39.80;;;;;;5013445;28;20088;-53
2022/06/04 10:17:05;;;;;;;3.42;1.00;;;35.60;40.00;;;;;;5013358;28;20130;-52
2022/06/04 10:19:31;;;;;;;2.72;0.95;;;35.30;38.40;;;;;;5013140;28;20026;-51
2022/06/04 10:22:26;;;;;;;1.88;0.90;;;34.80;39.20;;;;;;5013006;28;20038;-53
2022/06/04 10:24:56;;;;;;;3.03;1.15;;;35.20;41.00;;;;;;5012403;28;20489;-53
2022/06/04 10:27:25;;;;;;;2.35;1.13;;;35.70;40.10;;;;;;5012894;28;20045;-54
2022/06/04 10:30:15;;;;;;;2.85;0.75;;;36.00;39.70;;;;;;5012963;28;20485;-52
2022/06/04 10:33:18;;;;;;;4.20;1.40;;;36.60;40.50;;;;;;5011572;28;20077;-52
2022/06/04 10:36:02;;;;;;;4.88;0.85;;;37.10;38.80;;;;;;5009973;28;20064;-53
2022/06/04 10:38:30;;;;;;;2.65;0.93;;;36.70;39.20;;;;;;5009997;28;20042;-47
2022/06/04 10:41:09;;;;;;;2.28;0.80;;;36.40;38.30;;;;;;5011118;28;20502;-47
2022/06/04 10:43:49;;;;;;;3.80;0.95;;;36.30;36.90;;;;;;5011464;28;20038;-45
2022/06/04 10:46:24;;;;;;;3.08;1.10;;;35.80;37.50;;;;;;5010887;28;20084;-45
2022/06/04 10:49:27;;;;;;;2.88;0.93;;;35.40;38.40;;;;;;5011078;28;20050;-45
2022/06/04 10:52:07;;;;;;;4.05;1.33;;;34.40;39.20;;;;;;5010620;28;20049;-44
2022/06/04 10:54:40;;;;;;;4.07;1.13;;;32.80;41.50;;;;;;5011040;28;20041;-45
2022/06/04 10:57:24;;;;;;;3.67;1.10;;;31.40;43.00;;;;;;5010815;28;20445;-46
2022/06/04 11:00:16;;;;;;;5.78;0.95;;;30.30;44.00;;;;;;5011209;28;20045;-45
2022/06/04 11:02:56;;;;;;;1.90;0.95;;;28.80;44.30;;;;;;5010589;28;20508;-50
2022/06/04 11:05:37;;;;;;;5.45;1.80;;;27.50;46.10;;;;;;5010601;28;20041;-46
2022/06/04 11:08:06;;;;;;;;;;;26.50;49.00;;;;;;5010963;28;20485;-45
2022/06/04 11:10:45;;;;;;;4.38;1.70;;;25.70;51.00;;;;;;5010434;28;19928;-47
2022/06/04 11:13:32;;;;;;;4.28;1.70;;;25.20;56.00;;;;;;5010336;28;20815;-48
2022/06/04 11:16:11;;;;;;;3.88;1.73;;;24.90;54.20;;;;;;5010193;28;20050;-45
2022/06/04 11:18:56;;;;;;;3.83;1.80;;;24.80;54.90;;;;;;5010662;28;20050;-46
2022/06/04 11:21:35;;;;;;;3.47;1.85;;;24.60;55.00;;;;;;5010510;28;20092;-44
2022/06/04 11:24:11;;;;;;;7.80;2.05;;;24.20;56.60;;;;;;5009807;28;20434;-44
2022/06/04 11:27:04;;;;;;;4.75;1.55;;;24.10;56.20;;;;;;5009992;28;20046;-44
2022/06/04 11:29:31;;;;;;;4.55;1.58;;;23.90;57.30;;;;;;5009839;28;20453;-44
2022/06/04 11:32:18;;;;;;;3.42;1.63;;;23.70;58.10;;;;;;5010368;28;20783;-45
2022/06/04 11:35:10;;;;;;;5.00;1.75;;;23.50;58.50;;;;;;5010653;28;20057;-44
2022/06/04 11:38:00;;;;;;;5.22;1.58;;;23.20;58.80;;;;;;5010116;28;20120;-44
2022/06/04 11:40:37;;;;;;;7.78;1.80;;;23.00;58.60;;;;;;5009931;28;20038;-45
2022/06/04 11:43:27;;;;;;;3.90;1.40;;;22.90;58.20;;;;;;5009880;28;20792;-45
2022/06/04 11:46:12;;;;;;;4.32;1.60;;;22.70;58.40;;;;;;5010841;28;20160;-44
2022/06/04 11:48:38;;;;;;;4.57;1.60;;;22.30;59.30;;;;;;5011823;28;20046;-45
2022/06/04 11:51:25;;;;;;;3.78;1.50;;;21.90;61.90;;;;;;5011723;28;20045;-45
2022/06/04 11:54:26;;;;;;;3.85;1.35;;;21.90;63.40;;;;;;5011705;28;20045;-44
2022/06/04 11:57:04;;;;;;;3.00;1.77;;;21.90;62.40;;;;;;5010950;28;20037;-45
2022/06/04 11:59:47;;;;;;;2.78;1.35;;;21.90;64.00;;;;;;5011594;28;20056;-45
2022/06/04 12:02:36;;;;;;;3.78;1.25;;;21.90;61.20;;;;;;5011232;28;20055;-44
2022/06/04 12:05:20;;;;;;;3.30;1.60;;;21.90;62.20;;;;;;5011494;28;20121;-44
2022/06/04 12:07:54;;;;;;;5.03;1.63;;;21.80;62.30;;;;;;5011284;28;20037;-44
2022/06/04 12:10:31;;;;;;;2.03;0.95;;;21.80;64.00;;;;;;5011098;28;20053;-44
2022/06/04 12:13:09;;;;;;;4.07;1.60;;;21.70;62.70;;;;;;5011406;28;20133;-45
2022/06/04 12:15:48;;;;;;;5.43;1.98;;;21.70;64.80;;;;;;5011610;28;20045;-44
2022/06/04 12:18:34;;;;;;;4.72;2.10;;;21.70;66.00;;;;;;5010835;28;20041;-47
2022/06/04 12:24:27;;;;;;;3.58;1.67;;;21.50;64.90;;;;;;5010141;28;20081;-47
2022/06/04 12:27:24;;;;;;;7.70;2.15;;;21.40;65.10;;;;;;5010084;28;20116;-45
2022/06/04 12:29:58;;;;;;;3.60;1.60;;;21.60;70.80;;;;;;5009765;28;20089;-45
2022/06/04 12:32:28;;;;;;;2.45;1.70;;;21.60;69.50;;;;;;5009881;28;20115;-45
2022/06/04 12:35:06;;;;;;;4.57;1.77;;;21.60;69.40;;;;;;5011031;28;20124;-44
2022/06/04 12:37:40;;;;;;;4.75;1.83;;;21.60;71.00;;;;;;5013202;28;20050;-47
2022/06/04 12:40:23;;;;;;;4.15;1.45;;;21.50;69.90;;;;;;5013121;28;20056;-45
2022/06/04 12:43:19;;;;;;;2.72;1.60;;;21.40;71.00;;;;;;5013999;28;20045;-44
2022/06/04 12:45:51;;;;;;;3.38;1.80;;;21.10;66.00;;;;;;5013310;28;20167;-46
2022/06/04 12:48:32;;;;;;;3.15;1.75;;;21.10;66.10;;;;;;5013133;28;20046;-44
2022/06/04 12:51:25;;;;;;;5.05;1.90;;;21.10;67.10;;;;;;5013020;28;20042;-45
2022/06/04 12:54:00;;;;;;;3.30;1.58;;;21.00;68.50;;;;;;5013114;28;20045;-46
2022/06/04 12:56:30;;;;;;;3.10;1.70;;;21.00;67.50;;;;;;5012296;28;20133;-45
2022/06/04 12:58:59;;;;;;;4.47;1.60;;;20.90;67.10;;;;;;5012707;28;20053;-47
2022/06/04 13:01:30;;;;;;;2.75;1.67;;;20.80;67.50;;;;;;5012400;28;20440;-45
2022/06/04 13:04:21;;;;;;;5.20;1.63;;;20.90;68.50;;;;;;5012441;28;20371;-44
2022/06/04 13:07:12;;;;;;;4.28;1.50;;;21.00;68.90;;;;;;5010759;28;20456;-45
2022/06/04 13:09:50;;;;;;;3.92;1.50;;;21.10;68.30;;;;;;5012305;28;20092;-45
2022/06/04 13:12:43;;;;;;;10.13;2.15;;;21.20;67.50;;;;;;5011849;28;20062;-45
2022/06/04 13:15:40;;;;;;;4.90;1.70;;;21.10;68.20;;;;;;5011923;28;20053;-45
2022/06/04 13:18:17;;;;;;;4.10;1.50;;;21.10;67.00;;;;;;5011428;28;20520;-47
2022/06/04 13:20:58;;;;;;;4.68;2.03;;;21.10;66.60;;;;;;5011663;28;20128;-45
2022/06/04 13:23:26;;;;;;;3.47;1.48;;;21.10;67.90;;;;;;5010909;28;20554;-49
2022/06/04 13:26:04;;;;;;;3.50;1.83;;;21.20;67.70;;;;;;5011309;28;20046;-49
2022/06/04 13:28:39;;;;;;;4.20;1.50;;;21.20;67.90;;;;;;5011123;28;20097;-44